• Join FlightAware (Why Join?)
  • Login
  • US Flag 
09:25PM EDT


 

Airport Tracker/Info


-or-


 

Live Flight TrackerFlight Track Log ✈ DAL1903 ✈ 08-Apr-2013 ✈ KLGA - KSRQ

Flight Track Log - Related Links

Times and Time Zones

All times are in EDT time to prevent confusion due to time zone crossing. See the DAL1903 flight status page for this flight to view local times or setup timezone preferences in your user account.

Time Position Orientation Groundspeed Altitude Reporting Facility
EDT Latitude Longitude Course Direction KTS MPH feet Rate Location/Type
11:45AM 40.7500 -73.8167 242° Southwest 173 199 1,700  Level New York TRACON
11:46AM 40.7000 -73.8500 207° Southwest 214 246 5,100 3,180 Climbing New York TRACON
11:47AM 40.6833 -73.9167 252° West 211 243 8,100 2,880 Climbing New York TRACON
11:48AM 40.7167 -73.9833 303° West 238 274 10,900 2,340 Climbing New York TRACON
11:49AM 40.7667 -74.0500 315° West 303 349 12,800 1,860 Climbing New York TRACON
11:51AM 40.5019 -74.6785 242° Southwest  Level FlightAware Approximate
11:51AM 40.6903 -74.2961 248° West 352 405 16,900  Level New York Center
11:52AM 40.6408 -74.4167 242° Southwest 376 433 17,300 1,260 Climbing New York Center
11:53AM 40.5906 -74.5506 244° Southwest 398 458 19,500 2,280 Climbing New York Center
11:54AM 40.5364 -74.6842 242° Southwest 410 472 21,900 2,280 Climbing New York Center
11:55AM 40.4883 -74.8069 243° Southwest 426 490 24,100 2,160 Climbing New York Center
11:56AM 40.4339 -74.9400 242° Southwest 421 484 26,300 2,160 Climbing New York Center
11:57AM 40.3631 -75.0556 231° Southwest 416 479 28,500 1,500 Climbing New York Center
11:58AM 40.2839 -75.1678 227° Southwest 416 479 29,300 660 Climbing New York Center
11:59AM 40.2044 -75.2822 228° Southwest 422 486 29,900 780 Climbing New York Center
12:00PM 40.1186 -75.3989 226° Southwest 438 504 30,900 960 Climbing New York Center
12:01PM 40.0369 -75.5100 226° Southwest 438 504 31,900 540 Climbing New York Center
12:02PM 39.9575 -75.6211 227° Southwest 433 498 32,000  Climbing New York Center
12:03PM 39.8817 -75.7375 230° Southwest 433 498 32,000  Level New York Center
12:05PM 39.7400 -75.9611 231° Southwest 416 479 32,000  Level Washington Center
12:06PM 39.6667 -76.0767 231° Southwest 416 479 32,000  Level Washington Center
12:07PM 39.5956 -76.1867 230° Southwest 411 473 32,000  Level Washington Center
12:08PM 39.5239 -76.3017 231° Southwest 411 473 32,000  Level Washington Center
12:09PM 39.4525 -76.4139 231° Southwest 411 473 32,000  Level Washington Center
12:10PM 39.3767 -76.5311 230° Southwest 416 479 32,000  Level Washington Center
12:11PM 39.3047 -76.6431 230° Southwest 416 479 32,000  Level Washington Center
12:12PM 39.2328 -76.7572 231° Southwest 416 479 32,000  Level Washington Center
12:13PM 39.1608 -76.8686 230° Southwest 416 479 32,000  Level Washington Center
12:14PM 39.0889 -76.9794 230° Southwest 416 479 32,000  Level Washington Center
12:15PM 39.0083 -77.0822 225° Southwest 416 479 32,000  Level Washington Center
12:16PM 38.9217 -77.1792 221° Southwest 411 473 32,000  Level Washington Center
12:17PM 38.8369 -77.2706 220° Southwest 411 473 32,000  Level Washington Center
12:18PM 38.7503 -77.3619 219° Southwest 411 473 32,000  Level Washington Center
12:19PM 38.6569 -77.4633 220° Southwest 411 473 32,000  Level Washington Center
12:20PM 38.5700 -77.5567 220° Southwest 411 473 32,000  Level Washington Center
12:21PM 38.4872 -77.6472 221° Southwest 404 465 32,000  Level Washington Center
12:22PM 38.4000 -77.7403 220° Southwest 404 465 32,000  Level Washington Center
12:23PM 38.3128 -77.8331 220° Southwest 410 472 32,000  Level Washington Center
12:24PM 38.2300 -77.9231 221° Southwest 410 472 32,000  Level Washington Center
12:25PM 38.1553 -78.0053 221° Southwest 403 464 32,000  Level Washington Center
12:26PM 38.0744 -78.0872 219° Southwest 408 470 32,000  Level Washington Center
12:27PM 37.9889 -78.1792 220° Southwest 413 475 32,000  Level Washington Center
12:28PM 37.8803 -78.2806 216° Southwest 404 465 32,000  Level Washington Center
12:29PM 37.7950 -78.3694 219° Southwest 410 472 32,000  Level Washington Center
12:30PM 37.7011 -78.4553 216° Southwest 410 472 32,000  Level Washington Center
12:31PM 37.6072 -78.5436 217° Southwest 415 478 32,000  Level Washington Center
12:32PM 37.5239 -78.6189 216° Southwest 415 478 32,000  Level Washington Center
12:33PM 37.4319 -78.7094 218° Southwest 415 478 32,000  Level Washington Center
12:34PM 37.3381 -78.7944 216° Southwest 420 483 32,000  Level Washington Center
12:35PM 37.2439 -78.8792 216° Southwest 420 483 32,000  Level Washington Center
12:36PM 37.1389 -78.9789 217° Southwest 420 483 32,000  Level Washington Center
12:37PM 37.0447 -79.0633 216° Southwest 425 489 32,000  Level Washington Center
12:38PM 36.9544 -79.1500 218° Southwest 425 489 32,000  Level Washington Center
12:39PM 36.8600 -79.2367 216° Southwest 420 483 32,000 -60 Level Washington Center
12:40PM 36.7636 -79.3228 216° Southwest 420 483 31,900  Descending Washington Center
12:41PM 36.6797 -79.4017 217° Southwest 420 483 32,000  Climbing Washington Center
12:42PM 36.5872 -79.4850 216° Southwest 420 483 32,000  Level Washington Center
12:43PM 36.4925 -79.5708 216° Southwest 425 489 32,000  Level Washington Center
12:44PM 36.4000 -79.6564 217° Southwest 425 489 32,000  Level Washington Center
12:45PM 36.3628 -79.6867 213° Southwest 423 487 32,000  Level Atlanta Center
12:46PM 36.2678 -79.7717 216° Southwest 418 481 32,000  Level Atlanta Center
12:47PM 36.1850 -79.8481 217° Southwest 424 488 32,000  Level Atlanta Center
12:48PM 36.0856 -79.9331 215° Southwest 424 488 32,000  Level Atlanta Center
12:49PM 35.9856 -80.0022 209° Southwest 424 488 32,000  Level Atlanta Center
12:50PM 35.8728 -80.0617 203° Southwest 430 495 32,000  Level Atlanta Center
12:51PM 35.7475 -80.1214 201° Southwest 439 505 32,000  Level Atlanta Center
12:52PM 35.6369 -80.1831 204° Southwest 439 505 32,000  Level Atlanta Center
12:53PM 35.5239 -80.2367 201° Southwest 444 511 32,000  Level Atlanta Center
12:54PM 35.4108 -80.2931 202° Southwest 444 511 32,000  Level Atlanta Center
12:55PM 35.3122 -80.3431 202° Southwest 444 511 32,000  Level Atlanta Center
12:56PM 35.0997 -80.4469 202° Southwest 462 532 32,000  Level Jacksonville Center
12:57PM 34.9842 -80.5083 204° Southwest 451 519 32,000  Level Jacksonville Center
12:58PM 34.8664 -80.5622 201° Southwest 451 519 32,000  Level Jacksonville Center
12:59PM 34.7692 -80.6156 204° Southwest 446 513 32,000  Level Jacksonville Center
01:00PM 34.6492 -80.6717 201° Southwest 452 520 32,000  Level Jacksonville Center
01:01PM 34.5253 -80.7303 201° Southwest 462 532 32,000  Level Jacksonville Center
01:02PM 34.4053 -80.7936 204° Southwest 476 548 32,000  Level Jacksonville Center
01:03PM 34.2872 -80.8519 202° Southwest 470 541 32,000  Level Jacksonville Center
01:04PM 34.1756 -80.9047 201° Southwest 456 525 32,000  Level Jacksonville Center
01:05PM 34.0553 -80.9600 201° Southwest 456 525 32,000  Level Jacksonville Center
01:06PM 33.9331 -81.0203 202° Southwest 462 532 32,000  Level Jacksonville Center
01:07PM 33.8169 -81.0728 201° Southwest 462 532 32,000  Level Jacksonville Center
01:08PM 33.6947 -81.1378 204° Southwest 467 537 32,000  Level Jacksonville Center
01:09PM 33.5744 -81.1950 202° Southwest 473 544 32,000  Level Jacksonville Center
01:10PM 33.4586 -81.2544 203° Southwest 473 544 32,000  Level Jacksonville Center
01:11PM 33.3381 -81.3114 202° Southwest 467 537 32,000  Level Jacksonville Center
01:12PM 33.2094 -81.3756 203° Southwest 467 537 32,000  Level Jacksonville Center
01:13PM 33.1036 -81.4269 202° Southwest 462 532 32,000  Level Jacksonville Center
01:14PM 32.9853 -81.4833 202° Southwest 462 532 32,000  Level Jacksonville Center
01:15PM 32.8669 -81.5422 203° Southwest 456 525 32,000  Level Jacksonville Center
01:16PM 32.7508 -81.5983 202° Southwest 456 525 32,000  Level Jacksonville Center
01:17PM 32.6239 -81.6592 202° Southwest 456 525 32,000  Level Jacksonville Center
01:18PM 32.5200 -81.7100 202° Southwest 456 525 32,000  Level Jacksonville Center
01:19PM 32.3911 -81.7708 202° Southwest 456 525 32,000  Level Jacksonville Center
01:20PM 32.2872 -81.8211 202° Southwest 456 525 32,000  Level Jacksonville Center
01:21PM 32.1583 -81.8814 199° South 456 525 32,000  Level Jacksonville Center
01:22PM 32.1978 -81.8572 199° South  Level FlightAware Approximate
01:22PM 32.0419 -81.9367 202° Southwest 456 525 32,000  Level Jacksonville Center
01:23PM 31.9378 -81.9842 201° Southwest 451 519 32,000  Level Jacksonville Center
01:24PM 31.8067 -82.0369 199° South 451 519 32,000  Level Jacksonville Center
01:25PM 31.7006 -82.0819 200° South 451 519 32,000  Level Jacksonville Center
01:26PM 31.5797 -82.1292 198° South 451 519 32,000  Level Jacksonville Center
01:27PM 31.4631 -82.1789 200° South 446 513 32,000  Level Jacksonville Center
01:28PM 31.3464 -82.2236 198° South 447 514 32,000  Level Jacksonville Center
01:29PM 31.2275 -82.2706 199° South 447 514 32,000  Level Jacksonville Center
01:30PM 31.1108 -82.3200 200° South 447 514 32,000  Level Jacksonville Center
01:31PM 30.9942 -82.3642 198° South 441 507 32,000  Level Jacksonville Center
01:32PM 30.8753 -82.4133 200° South 447 514 32,000  Level Jacksonville Center
01:33PM 30.7586 -82.4575 198° South 447 514 32,000  Level Jacksonville Center
01:34PM 30.6417 -82.5014 198° South 447 514 32,000  Level Jacksonville Center
01:35PM 30.5228 -82.5478 199° South 446 513 32,000 -60 Level Jacksonville Center
01:36PM 30.3997 -82.5242 171° South 432 497 31,900  Descending Jacksonville Center
01:37PM 30.2742 -82.4764 162° South 450 518 32,000  Climbing Jacksonville Center
01:38PM 30.1467 -82.4339 164° South 460 529 32,000  Level Jacksonville Center
01:39PM 30.0128 -82.3817 161° South 466 536 32,000 -420 Level Jacksonville Center
01:40PM 29.8853 -82.3367 163° South 471 542 31,200 -1,800 Descending Jacksonville Center
01:41PM 29.7725 -82.3017 165° South 471 542 28,400 -2,940 Descending Jacksonville Center
01:42PM 29.6281 -82.2619 167° South 476 548 25,400 -2,580 Descending Jacksonville Center
01:43PM 29.4986 -82.2436 173° South 476 548 23,300 -2,520 Descending Jacksonville Center
01:44PM 29.3753 -82.2253 173° South 468 539 20,400 -2,700 Descending Jacksonville Center
01:45PM 29.2583 -82.2069 172° South 447 514 17,900 -1,860 Descending Jacksonville Center
01:46PM 29.1436 -82.1889 172° South 433 498 16,700 -1,080 Descending Jacksonville Center
01:47PM 29.0286 -82.1731 173° South 423 487 15,800 -1,020 Descending Jacksonville Center
01:48PM 28.9306 -82.1594 173° South 412 474 14,700 -960 Descending Jacksonville Center
01:50PM 28.7000 -82.1167 171° South 385 443 13,100 -600 Descending Tampa TRACON
01:51PM 28.6000 -82.1000 172° South 383 441 13,000 -180 Descending Tampa TRACON
01:52PM 28.5167 -82.1000 180° South 385 443 12,800 -540 Descending Tampa TRACON
01:53PM 28.4000 -82.1167 187° South 381 438 12,000 -840 Descending Tampa TRACON
01:54PM 28.2833 -82.1333 187° South 378 435 11,200 -540 Descending Tampa TRACON
01:55PM 28.2000 -82.1500 190° South 360 414 11,000 -420 Descending Tampa TRACON
01:56PM 28.0833 -82.1667 187° South 330 380 10,400 -900 Descending Tampa TRACON
01:57PM 28.0167 -82.1833 192° South 296 341 9,200 -1,380 Descending Tampa TRACON
01:58PM 27.9333 -82.2000 190° South 289 333 7,700 -1,620 Descending Tampa TRACON
01:59PM 27.8667 -82.2167 192° South 278 320 6,200 -900 Descending Tampa TRACON
02:00PM 27.7833 -82.2167 180° South 276 318 6,000 -120 Descending Tampa TRACON
02:01PM 27.7167 -82.2833 222° Southwest 267 307 6,000  Level Tampa TRACON
02:02PM 27.6667 -82.3333 222° Southwest 237 273 6,000 -540 Level Tampa TRACON
02:03PM 27.6333 -82.3667 222° Southwest 229 264 5,000 -1,080 Descending Tampa TRACON
02:04PM 27.6000 -82.4333 241° Southwest 227 261 4,000 -540 Descending Tampa TRACON
02:05PM 27.5833 -82.5000 254° West 232 267 4,000 -660 Level Tampa TRACON
02:06PM 27.5667 -82.5833 257° West 227 261 2,700 -1,020 Descending Tampa TRACON
02:07PM 27.5500 -82.6333 249° West 217 250 2,100 -360 Descending Tampa TRACON
02:08PM 27.5000 -82.6667 211° Southwest 203 234 2,100 -180 Level Tampa TRACON
02:09PM 27.4667 -82.6333 138° Southeast 184 212 1,800 -600 Descending Tampa TRACON
02:10PM 27.4333 -82.6000 138° Southeast 152 175 1,000 -780 Descending Tampa TRACON
02:11PM 27.4167 -82.5667 119° Southeast 137 158 300 -720 Descending Tampa TRACON
02:13PM 27.3954 -82.5544 160° South  Level Estimated
02:20PM 27.3954 -82.5544 160° South  Level Estimated